Time;durP1;ratioP1;P1;durP2;ratioP2;P2;SDS_P1;SDS_P2;PMS_P1;PMS_P2;Temp;Humidity;BMP_temperature;BMP_pressure;BME280_temperature;BME280_humidity;BME280_pressure;Samples;Min_cycle;Max_cycle;Signal;HPM_P1;HPM_P2
2022/08/30 00:03:21;;;;;;;7.38;4.78;;;;;;;16.69;100.00;101978.63;5072038;28;20038;-63
2022/08/30 00:05:46;;;;;;;7.25;4.78;;;;;;;16.68;100.00;101969.88;5088723;28;20123;-63
2022/08/30 00:08:12;;;;;;;8.60;5.18;;;;;;;16.67;100.00;101972.47;5088388;28;20459;-62
2022/08/30 00:10:39;;;;;;;7.35;5.20;;;;;;;16.68;100.00;101966.38;5088934;28;20024;-63
2022/08/30 00:13:05;;;;;;;7.20;4.68;;;;;;;16.66;100.00;101965.44;5089115;28;20467;-63
2022/08/30 00:15:31;;;;;;;9.10;5.45;;;;;;;16.65;100.00;101969.81;5088866;28;20085;-62
2022/08/30 00:17:56;;;;;;;7.30;4.75;;;;;;;16.64;100.00;101959.31;5088308;28;20024;-63
2022/08/30 00:20:26;;;;;;;7.10;5.10;;;;;;;16.63;100.00;101962.75;5089072;28;20027;-62
2022/08/30 00:22:51;;;;;;;8.18;5.03;;;;;;;16.60;100.00;101965.31;5087603;28;20020;-63
2022/08/30 00:25:18;;;;;;;7.63;5.25;;;;;;;16.56;100.00;101965.22;5088534;28;20077;-63
2022/08/30 00:27:44;;;;;;;6.80;5.60;;;;;;;16.55;100.00;101960.81;5088408;28;20107;-63
2022/08/30 00:30:10;;;;;;;8.98;5.13;;;;;;;16.53;100.00;101972.97;5087836;28;20373;-63
2022/08/30 00:32:36;;;;;;;6.00;5.18;;;;;;;16.53;100.00;101972.13;5088632;28;20028;-63
2022/08/30 00:35:02;;;;;;;7.90;4.95;;;;;;;16.49;100.00;101973.78;5088373;28;20089;-63
2022/08/30 00:37:28;;;;;;;7.78;5.05;;;;;;;16.46;100.00;101970.19;5088243;28;20027;-62
2022/08/30 00:39:53;;;;;;;6.68;5.22;;;;;;;16.43;100.00;101970.97;5088279;28;20028;-64
2022/08/30 00:42:19;;;;;;;6.25;4.70;;;;;;;16.44;100.00;101972.78;5088126;28;20131;-63
2022/08/30 00:44:46;;;;;;;7.38;4.65;;;;;;;16.43;100.00;101968.38;5088387;28;20027;-62
2022/08/30 00:47:11;;;;;;;5.97;4.72;;;;;;;16.44;100.00;101972.78;5086857;28;20081;-62
2022/08/30 00:49:40;;;;;;;7.90;4.88;;;;;;;16.42;100.00;101969.22;5087734;28;20672;-62
2022/08/30 00:52:06;;;;;;;8.65;5.05;;;;;;;16.45;100.00;101969.28;5088363;28;20023;-62
2022/08/30 00:54:34;;;;;;;7.55;4.75;;;;;;;16.45;100.00;101974.53;5087895;28;20024;-62
2022/08/30 00:56:59;;;;;;;8.10;5.32;;;;;;;16.42;100.00;101972.69;5087821;28;20024;-62
2022/08/30 00:59:26;;;;;;;6.93;4.85;;;;;;;16.41;100.00;101970.94;5087524;28;20028;-62
2022/08/30 01:01:52;;;;;;;5.50;5.03;;;;;;;16.42;100.00;101970.09;5088125;28;20024;-62
2022/08/30 01:04:20;;;;;;;7.70;4.80;;;;;;;16.44;100.00;101972.78;5088115;28;20027;-62
2022/08/30 01:06:46;;;;;;;6.65;4.80;;;;;;;16.43;100.00;101976.22;5088139;28;20019;-62
2022/08/30 01:09:12;;;;;;;7.75;5.10;;;;;;;16.45;100.00;101969.28;5087622;28;20371;-62
2022/08/30 01:11:40;;;;;;;12.60;5.25;;;;;;;16.46;100.00;101971.06;5087825;28;20035;-62
2022/08/30 01:14:06;;;;;;;8.25;4.97;;;;;;;16.46;100.00;101984.13;5063418;28;20021;-62
2022/08/30 01:16:33;;;;;;;7.57;5.28;;;;;;;16.47;100.00;101980.69;5087502;28;20463;-62
2022/08/30 01:18:59;;;;;;;8.77;5.72;;;;;;;16.50;100.00;101983.38;5087764;28;20387;-62
2022/08/30 01:21:32;;;;;;;7.53;5.35;;;;;;;16.51;100.00;101985.16;5081695;28;20023;-62
2022/08/30 01:24:00;;;;;;;7.07;5.30;;;;;;;16.51;100.00;101985.16;5086060;28;20022;-62
2022/08/30 01:26:27;;;;;;;6.25;5.07;;;;;;;16.53;100.00;101993.91;5087735;28;20020;-62
2022/08/30 01:28:57;;;;;;;7.47;4.47;;;;;;;16.54;100.00;101985.22;5087332;28;20031;-62
2022/08/30 01:31:22;;;;;;;7.18;5.07;;;;;;;16.53;100.00;101988.69;5087431;28;20035;-62
2022/08/30 01:33:48;;;;;;;6.70;5.03;;;;;;;16.52;100.00;101986.91;5087111;28;20288;-62
2022/08/30 01:36:14;;;;;;;8.20;5.30;;;;;;;16.52;100.00;101988.63;5087660;28;20456;-62
2022/08/30 01:38:50;;;;;;;8.07;4.82;;;;;;;16.51;100.00;101979.94;5081522;28;20021;-62
2022/08/30 01:41:19;;;;;;;5.03;4.60;;;;;;;16.50;100.00;101972.91;5078541;28;20031;-62
2022/08/30 01:43:45;;;;;;;5.78;5.18;;;;;;;16.48;100.00;101973.72;5084942;28;20124;-62
2022/08/30 01:46:12;;;;;;;8.75;5.78;;;;;;;16.43;100.00;101971.88;5087267;28;20063;-62
2022/08/30 01:48:39;;;;;;;8.63;5.43;;;;;;;16.40;100.00;101977.03;5086874;28;20170;-62
2022/08/30 01:51:05;;;;;;;6.63;5.50;;;;;;;16.39;100.00;101976.97;5087218;28;20028;-62
2022/08/30 01:53:31;;;;;;;7.70;5.22;;;;;;;16.38;100.00;101975.22;5086951;28;20016;-62
2022/08/30 01:55:57;;;;;;;6.20;5.47;;;;;;;16.36;100.00;101979.50;5085852;28;20027;-62
2022/08/30 01:58:22;;;;;;;7.97;5.20;;;;;;;16.31;100.00;101982.03;5086506;28;20085;-62
2022/08/30 02:00:48;;;;;;;6.70;5.65;;;;;;;16.28;100.00;101982.81;5086293;28;20028;-63
2022/08/30 02:03:14;;;;;;;7.25;6.15;;;;;;;16.26;100.00;101981.88;5076928;28;20024;-63
2022/08/30 02:05:39;;;;;;;6.57;5.30;;;;;;;16.25;100.00;101982.75;5083593;28;20023;-63
2022/08/30 02:08:04;;;;;;;6.57;5.97;;;;;;;16.22;100.00;101982.66;5086762;28;20032;-62
2022/08/30 02:10:30;;;;;;;7.93;5.68;;;;;;;16.20;100.00;101980.00;5086771;28;20024;-63
2022/08/30 02:12:55;;;;;;;7.53;5.95;;;;;;;16.16;100.00;101974.63;5086707;28;20028;-63
2022/08/30 02:15:21;;;;;;;5.97;5.47;;;;;;;16.13;100.00;101966.72;5086464;28;20032;-63
2022/08/30 02:17:46;;;;;;;7.57;5.97;;;;;;;16.10;100.00;101970.13;5086422;28;20045;-63
2022/08/30 02:20:11;;;;;;;9.75;6.35;;;;;;;16.07;100.00;101968.34;5086685;28;20328;-64
2022/08/30 02:22:37;;;;;;;7.47;6.20;;;;;;;16.04;100.00;101963.03;5087194;28;20160;-63
2022/08/30 02:25:06;;;;;;;7.68;6.75;;;;;;;16.02;100.00;101959.47;5087153;28;20020;-63
2022/08/30 02:27:32;;;;;;;7.85;6.28;;;;;;;15.99;100.00;101967.22;5086401;28;20028;-63
2022/08/30 02:29:57;;;;;;;6.82;6.07;;;;;;;15.95;100.00;101974.09;5086805;28;20436;-63
2022/08/30 02:32:22;;;;;;;7.60;6.55;;;;;;;15.94;100.00;101971.41;5087017;28;20031;-63
2022/08/30 02:34:48;;;;;;;8.57;7.13;;;;;;;15.92;100.00;101975.72;5086919;28;20349;-63
2022/08/30 02:37:14;;;;;;;9.75;6.60;;;;;;;15.89;100.00;101966.06;5086911;28;20028;-64
2022/08/30 02:39:39;;;;;;;6.47;5.90;;;;;;;15.89;100.00;101962.56;5073275;28;20028;-63
2022/08/30 02:42:05;;;;;;;7.72;6.72;;;;;;;15.87;100.00;101957.28;5073033;28;20113;-62
2022/08/30 02:44:30;;;;;;;7.07;6.28;;;;;;;15.87;100.00;101964.22;5072864;28;20035;-64
2022/08/30 02:46:55;;;;;;;9.70;7.07;;;;;;;15.85;100.00;101957.25;5082796;28;20070;-63
2022/08/30 02:49:21;;;;;;;8.85;7.00;;;;;;;15.83;100.00;101963.28;5078366;28;20031;-63
2022/08/30 02:51:46;;;;;;;8.65;7.22;;;;;;;15.80;100.00;101964.06;5087276;28;20574;-63
2022/08/30 02:54:18;;;;;;;8.07;7.30;;;;;;;15.79;100.00;101962.31;5090349;28;20028;-64
2022/08/30 02:56:43;;;;;;;7.65;6.85;;;;;;;15.79;100.00;101964.94;5090361;28;20030;-64
2022/08/30 02:59:08;;;;;;;8.48;7.38;;;;;;;15.80;100.00;101958.84;5073503;28;20037;-64
2022/08/30 03:01:35;;;;;;;7.70;6.90;;;;;;;15.77;100.00;101952.66;5052002;28;20548;-63
2022/08/30 03:04:00;;;;;;;9.07;6.30;;;;;;;15.76;100.00;101948.28;5053556;28;20035;-63
2022/08/30 03:06:25;;;;;;;7.47;6.75;;;;;;;15.75;100.00;101943.88;5050270;28;20029;-63
2022/08/30 03:08:51;;;;;;;9.40;7.60;;;;;;;15.75;100.00;101939.53;5063679;28;20083;-64
2022/08/30 03:11:16;;;;;;;7.18;6.53;;;;;;;15.73;100.00;101944.72;5049952;28;20036;-64
2022/08/30 03:13:41;;;;;;;8.98;6.97;;;;;;;15.72;100.00;101944.69;5061895;28;20471;-63
2022/08/30 03:16:07;;;;;;;7.60;6.90;;;;;;;15.71;100.00;101950.75;5065551;28;20035;-63
2022/08/30 03:18:32;;;;;;;9.82;7.22;;;;;;;15.69;100.00;101939.34;5069486;28;20032;-63
2022/08/30 03:20:57;;;;;;;8.07;6.63;;;;;;;15.68;100.00;101948.06;5069401;28;20122;-63
2022/08/30 03:23:23;;;;;;;7.70;6.75;;;;;;;15.68;100.00;101942.81;5069276;28;20028;-63
2022/08/30 03:25:48;;;;;;;8.18;7.38;;;;;;;15.65;100.00;101947.97;5069402;28;20490;-63
2022/08/30 03:28:14;;;;;;;8.32;6.93;;;;;;;15.65;100.00;101947.97;5069777;28;20039;-63
2022/08/30 03:30:39;;;;;;;9.30;7.30;;;;;;;15.64;100.00;101956.63;5068655;28;20039;-64
2022/08/30 03:33:05;;;;;;;8.18;6.88;;;;;;;15.65;100.00;101953.19;5069840;28;20484;-63
2022/08/30 03:35:30;;;;;;;8.05;7.25;;;;;;;15.67;100.00;101956.75;5079468;28;20024;-63
2022/08/30 03:37:56;;;;;;;8.30;7.00;;;;;;;15.67;100.00;101956.75;5070808;28;20475;-62
2022/08/30 03:40:22;;;;;;;11.55;7.35;;;;;;;15.68;100.00;101951.56;5071527;28;20503;-62
2022/08/30 03:42:47;;;;;;;9.05;7.43;;;;;;;15.69;100.00;101944.59;5085030;28;20048;-63
2022/08/30 03:45:14;;;;;;;8.30;7.47;;;;;;;15.68;100.00;101942.81;5088821;28;20132;-63
2022/08/30 03:47:40;;;;;;;8.20;7.40;;;;;;;15.69;100.00;101944.59;5089462;28;20544;-63
2022/08/30 03:50:06;;;;;;;8.60;7.60;;;;;;;15.67;100.00;101941.06;5089555;28;20032;-64
2022/08/30 03:52:31;;;;;;;7.88;7.28;;;;;;;15.66;100.00;101944.50;5061374;28;20024;-63
2022/08/30 03:54:56;;;;;;;9.50;8.70;;;;;;;15.63;100.00;101955.78;5089041;28;20081;-63
2022/08/30 03:57:22;;;;;;;8.27;7.57;;;;;;;15.59;100.00;101949.56;5086426;28;20081;-63
2022/08/30 03:59:47;;;;;;;9.43;8.73;;;;;;;15.56;100.00;101949.47;5078946;28;20078;-63
2022/08/30 04:02:12;;;;;;;9.57;8.68;;;;;;;15.53;100.00;101951.09;5088988;28;20483;-63
2022/08/30 04:04:38;;;;;;;9.00;8.13;;;;;;;15.50;100.00;101954.53;5089133;28;20020;-64
2022/08/30 04:07:03;;;;;;;9.45;7.95;;;;;;;15.46;100.00;101952.66;5089043;28;20032;-62
2022/08/30 04:09:30;;;;;;;9.00;8.30;;;;;;;15.46;100.00;101950.94;5088857;28;20028;-63
2022/08/30 04:11:55;;;;;;;9.32;8.13;;;;;;;15.43;100.00;101952.56;5089142;28;20066;-63
2022/08/30 04:14:22;;;;;;;8.30;7.53;;;;;;;15.41;100.00;101955.13;5088015;28;20059;-63
2022/08/30 04:16:47;;;;;;;8.60;7.70;;;;;;;15.39;100.00;101955.91;5089120;28;20028;-63
2022/08/30 04:19:12;;;;;;;8.50;7.70;;;;;;;15.37;100.00;101953.28;5088642;28;20080;-63
2022/08/30 04:21:38;;;;;;;9.02;8.27;;;;;;;15.33;100.00;101949.69;5088555;28;20050;-63
2022/08/30 04:24:03;;;;;;;9.45;8.63;;;;;;;15.31;100.00;101959.19;5088958;28;20043;-62
2022/08/30 04:26:29;;;;;;;9.73;8.73;;;;;;;15.29;100.00;101953.03;5087733;28;20032;-63
2022/08/30 04:28:54;;;;;;;9.80;8.98;;;;;;;15.28;100.00;101963.44;5088770;28;20023;-63
2022/08/30 04:31:20;;;;;;;10.45;9.38;;;;;;;15.26;100.00;101952.94;5088106;28;20031;-63
2022/08/30 04:33:46;;;;;;;9.85;8.95;;;;;;;15.25;100.00;101962.50;5088093;28;20020;-62
2022/08/30 04:36:12;;;;;;;10.20;9.23;;;;;;;15.23;100.00;101965.91;5086507;28;20062;-63
2022/08/30 04:38:39;;;;;;;10.70;9.80;;;;;;;15.19;100.00;101969.25;5087124;28;20047;-63
2022/08/30 04:41:18;;;;;;;10.23;9.38;;;;;;;15.17;100.00;101970.94;5085781;28;20111;-63
2022/08/30 04:43:46;;;;;;;10.45;9.55;;;;;;;15.15;100.00;101967.41;5073537;28;20055;-63
2022/08/30 04:46:14;;;;;;;11.50;10.48;;;;;;;15.15;100.00;101970.03;5083956;28;20028;-62
2022/08/30 04:48:40;;;;;;;11.02;10.00;;;;;;;15.15;100.00;101967.41;5064827;28;20076;-63
2022/08/30 04:51:08;;;;;;;10.63;9.40;;;;;;;15.13;100.00;101968.22;5048519;28;20188;-62
2022/08/30 04:53:33;;;;;;;10.90;10.00;;;;;;;15.12;100.00;101984.75;5047630;28;20392;-63
2022/08/30 04:55:59;;;;;;;13.35;9.93;;;;;;;15.11;100.00;101982.97;5047508;28;20035;-63
2022/08/30 04:58:24;;;;;;;12.05;11.02;;;;;;;15.12;100.00;101978.63;5047373;28;20032;-63
2022/08/30 05:00:49;;;;;;;13.02;10.60;;;;;;;15.10;100.00;101978.59;5049662;28;20027;-62
2022/08/30 05:03:16;;;;;;;10.75;9.77;;;;;;;15.12;100.00;101979.53;5049392;28;20025;-62
2022/08/30 05:05:47;;;;;;;11.27;10.38;;;;;;;15.11;100.00;101984.69;5051024;28;20082;-63
2022/08/30 05:08:14;;;;;;;12.27;11.00;;;;;;;15.10;100.00;101986.41;5047829;28;20020;-63
2022/08/30 05:10:46;;;;;;;11.02;10.00;;;;;;;15.09;100.00;101984.63;5048588;28;20385;-62
2022/08/30 05:13:12;;;;;;;10.85;9.85;;;;;;;15.10;100.00;101980.31;5047310;28;20047;-63
2022/08/30 05:15:39;;;;;;;11.65;10.57;;;;;;;15.08;100.00;101977.66;5046030;28;20013;-63
2022/08/30 05:18:06;;;;;;;11.23;10.35;;;;;;;15.07;100.00;101988.03;5049085;28;20025;-63
2022/08/30 05:20:31;;;;;;;12.23;11.23;;;;;;;15.05;100.00;101987.09;5058206;28;20028;-63
2022/08/30 05:22:57;;;;;;;11.90;10.90;;;;;;;15.03;100.00;101989.66;5067034;28;20044;-63
2022/08/30 05:25:25;;;;;;;12.00;10.88;;;;;;;15.02;100.00;101987.88;5067552;28;20008;-62
2022/08/30 05:27:51;;;;;;;11.55;10.63;;;;;;;15.03;100.00;101999.22;5061069;28;20020;-62
2022/08/30 05:30:17;;;;;;;12.63;11.43;;;;;;;15.02;100.00;102003.53;5063976;28;20031;-63
2022/08/30 05:32:42;;;;;;;14.10;11.05;;;;;;;15.03;100.00;102004.44;5064301;28;20021;-62
2022/08/30 05:35:10;;;;;;;12.80;11.43;;;;;;;15.05;100.00;102006.28;5066788;28;20025;-63
2022/08/30 05:37:36;;;;;;;11.88;10.95;;;;;;;15.05;100.00;102003.66;5067133;28;20036;-63
2022/08/30 05:40:02;;;;;;;13.15;12.05;;;;;;;15.05;100.00;102003.66;5055667;28;20037;-62
2022/08/30 05:42:27;;;;;;;12.57;11.57;;;;;;;15.07;100.00;102008.94;5071469;28;20067;-63
2022/08/30 05:44:53;;;;;;;12.02;10.93;;;;;;;15.10;100.00;102007.28;5070767;28;20052;-62
2022/08/30 05:47:19;;;;;;;12.65;11.65;;;;;;;15.15;100.00;102010.03;5062701;28;20024;-63
2022/08/30 05:49:45;;;;;;;13.20;12.10;;;;;;;15.17;100.00;102012.69;5064759;28;20036;-63
2022/08/30 05:52:11;;;;;;;12.52;11.25;;;;;;;15.22;100.00;102012.00;5065318;28;20021;-63
2022/08/30 05:54:37;;;;;;;13.23;11.98;;;;;;;15.28;100.00;102005.22;5067243;28;20245;-62
2022/08/30 05:57:02;;;;;;;13.52;12.23;;;;;;;15.32;100.00;102005.38;5067039;28;20020;-62
2022/08/30 05:59:27;;;;;;;12.98;11.75;;;;;;;15.39;100.00;102001.22;5065767;28;20029;-63
2022/08/30 06:01:56;;;;;;;12.80;11.70;;;;;;;15.45;100.00;102003.13;5066504;28;20016;-62
2022/08/30 06:04:21;;;;;;;12.20;11.20;;;;;;;15.51;100.00;102000.69;5066602;28;20033;-63
2022/08/30 06:06:47;;;;;;;13.73;12.38;;;;;;;15.56;100.00;102003.47;5072152;28;20081;-63
2022/08/30 06:09:13;;;;;;;12.90;11.80;;;;;;;15.63;100.00;102007.13;5064675;28;20380;-63
2022/08/30 06:11:39;;;;;;;13.77;12.40;;;;;;;15.70;100.00;102003.84;5064978;28;20020;-63
2022/08/30 06:14:05;;;;;;;13.13;12.05;;;;;;;15.76;100.00;102004.00;5065287;28;20035;-63
2022/08/30 06:16:30;;;;;;;14.15;12.93;;;;;;;15.84;100.00;102007.75;5057937;28;20020;-63
2022/08/30 06:18:57;;;;;;;13.35;12.25;;;;;;;15.90;100.00;102009.63;5065918;28;20492;-62
2022/08/30 06:21:26;;;;;;;12.98;11.63;;;;;;;15.96;100.00;102006.31;5066783;28;20033;-63
2022/08/30 06:23:52;;;;;;;13.48;12.30;;;;;;;16.04;100.00;102004.84;5067180;28;20020;-63
2022/08/30 06:26:18;;;;;;;12.45;11.43;;;;;;;16.14;100.00;101999.84;5068235;28;20111;-63
2022/08/30 06:28:44;;;;;;;12.80;11.70;;;;;;;16.22;100.00;102003.59;5069577;28;20434;-63
2022/08/30 06:31:11;;;;;;;13.02;10.20;;;;;;;16.31;100.00;102000.31;5071277;28;20020;-63
2022/08/30 06:33:38;;;;;;;11.25;10.35;;;;;;;16.41;100.00;102004.06;5070219;28;20028;-63
2022/08/30 06:36:09;;;;;;;10.98;9.90;;;;;;;16.50;100.00;102003.41;5070188;28;20033;-63
2022/08/30 06:38:34;;;;;;;;;;;;;;;16.59;100.00;101997.53;5072058;28;20077;-62
2022/08/30 06:41:05;;;;;;;12.65;11.52;;;;;;;16.68;100.00;101989.91;5085839;28;19908;-63
2022/08/30 06:43:30;;;;;;;11.27;10.30;;;;;;;16.76;100.00;102000.59;5090495;28;20052;-63
2022/08/30 06:46:01;;;;;;;11.63;10.38;;;;;;;16.85;100.00;102005.16;5090726;28;20498;-63
2022/08/30 06:48:26;;;;;;;10.07;9.27;;;;;;;16.92;100.00;101996.59;5090014;28;20092;-63
2022/08/30 06:50:53;;;;;;;11.57;10.70;;;;;;;17.02;100.00;102006.44;5091114;28;20015;-62
2022/08/30 06:53:18;;;;;;;11.00;10.10;;;;;;;17.09;99.90;101994.38;5077552;28;20032;-63
2022/08/30 06:55:44;;;;;;;9.60;8.80;;;;;;;17.17;99.83;101991.97;5075295;28;20032;-63
2022/08/30 06:58:09;;;;;;;10.77;9.88;;;;;;;17.31;98.92;102000.13;5090517;28;20036;-64
2022/08/30 07:00:34;;;;;;;10.40;9.35;;;;;;;17.41;97.32;101993.38;5090004;28;20028;-62
2022/08/30 07:03:01;;;;;;;10.10;9.25;;;;;;;17.51;97.05;101992.72;5090634;28;20028;-63
2022/08/30 07:05:26;;;;;;;10.38;9.57;;;;;;;17.62;96.23;102000.81;5090402;28;20056;-63
2022/08/30 07:07:53;;;;;;;9.43;8.38;;;;;;;17.74;95.42;102001.91;5090165;28;20081;-63
2022/08/30 07:10:20;;;;;;;9.45;8.57;;;;;;;17.91;95.51;101997.00;5090425;28;20031;-63
2022/08/30 07:12:46;;;;;;;9.48;8.68;;;;;;;17.98;93.44;101998.91;5089881;28;20031;-63
2022/08/30 07:15:11;;;;;;;9.18;8.15;;;;;;;18.13;93.73;102003.53;5090044;28;20107;-63
2022/08/30 07:20:21;;;;;;;9.02;8.20;;;;;;;18.51;91.64;102003.38;5090103;28;20129;-64
2022/08/30 07:22:47;;;;;;;9.07;7.90;;;;;;;18.69;91.13;102019.44;5089625;28;20059;-64
2022/08/30 07:25:13;;;;;;;8.52;7.93;;;;;;;18.86;88.94;102010.06;5090455;28;20407;-63
2022/08/30 07:27:39;;;;;;;8.35;7.65;;;;;;;18.96;87.71;102012.84;5089456;28;20458;-64
2022/08/30 07:30:07;;;;;;;7.38;6.78;;;;;;;19.14;87.40;102015.78;5089637;28;20195;-63
2022/08/30 07:32:33;;;;;;;9.20;8.30;;;;;;;19.19;85.39;102019.38;5089881;28;20035;-63
2022/08/30 07:34:58;;;;;;;8.20;7.50;;;;;;;19.18;85.68;102023.72;5089256;28;20047;-65
2022/08/30 07:37:24;;;;;;;8.68;7.85;;;;;;;19.16;85.52;102020.19;5088817;28;20028;-64
2022/08/30 07:39:49;;;;;;;8.93;8.05;;;;;;;19.15;86.02;102017.53;5087883;28;20027;-64
2022/08/30 07:42:15;;;;;;;9.68;8.63;;;;;;;19.03;85.89;102018.22;5088820;28;20058;-64
2022/08/30 07:44:40;;;;;;;8.82;7.78;;;;;;;19.05;87.57;102017.38;5089546;28;20325;-63
2022/08/30 07:47:05;;;;;;;8.50;7.55;;;;;;;19.11;86.54;102016.56;5089658;28;20053;-64
2022/08/30 07:49:31;;;;;;;8.27;7.57;;;;;;;19.26;86.18;102022.97;5089845;28;20559;-64
2022/08/30 07:51:56;;;;;;;8.88;8.00;;;;;;;19.36;84.90;102021.31;5089347;28;20474;-64
2022/08/30 07:54:21;;;;;;;7.97;7.28;;;;;;;19.41;84.04;102023.16;5089174;28;20131;-64
2022/08/30 07:56:47;;;;;;;7.55;6.85;;;;;;;19.50;85.31;102025.03;5089012;28;20051;-64
2022/08/30 07:59:13;;;;;;;7.95;7.25;;;;;;;19.72;84.42;102017.44;5089235;28;20512;-63
2022/08/30 08:01:38;;;;;;;8.50;7.80;;;;;;;19.86;82.63;102020.22;5089033;28;20656;-61
2022/08/30 08:04:03;;;;;;;8.57;7.78;;;;;;;19.94;83.90;102016.78;5088956;28;20027;-61
2022/08/30 08:06:29;;;;;;;7.88;7.18;;;;;;;19.98;81.74;102022.13;5087649;28;20054;-62
2022/08/30 08:08:55;;;;;;;8.05;7.35;;;;;;;20.03;81.49;102022.16;5088669;28;20036;-62
2022/08/30 08:11:24;;;;;;;8.23;6.95;;;;;;;20.08;81.06;102017.88;5089010;28;20028;-62
2022/08/30 08:13:51;;;;;;;7.90;7.10;;;;;;;20.23;82.33;102016.28;5088832;28;20081;-62
2022/08/30 08:16:17;;;;;;;8.75;7.20;;;;;;;20.35;80.40;102013.75;5088974;28;20027;-62
2022/08/30 08:18:42;;;;;;;8.50;7.05;;;;;;;20.49;79.96;102015.66;5088699;28;20035;-61
2022/08/30 08:21:08;;;;;;;7.22;6.25;;;;;;;20.60;78.14;102021.88;5088508;28;20027;-62
2022/08/30 08:23:33;;;;;;;6.63;5.93;;;;;;;20.67;77.21;102022.81;5089222;28;20028;-61
2022/08/30 08:25:59;;;;;;;6.20;5.60;;;;;;;20.66;76.28;102025.44;5089391;28;20069;-61
2022/08/30 08:28:24;;;;;;;6.68;5.90;;;;;;;20.77;76.67;102026.41;5089362;28;20256;-61
2022/08/30 08:30:50;;;;;;;6.30;5.70;;;;;;;20.92;75.85;102016.88;5088440;28;20376;-62
2022/08/30 08:33:17;;;;;;;8.80;6.22;;;;;;;21.05;76.09;102029.28;5088788;28;20020;-61
2022/08/30 08:35:42;;;;;;;8.40;4.97;;;;;;;21.15;75.68;102024.06;5088591;28;20028;-61
2022/08/30 08:38:08;;;;;;;5.20;4.70;;;;;;;21.19;74.99;102026.72;5088523;28;20024;-62
2022/08/30 08:40:46;;;;;;;4.70;4.20;;;;;;;21.18;73.51;102026.72;5084098;28;20024;-62
2022/08/30 08:43:19;;;;;;;5.07;4.25;;;;;;;21.16;73.61;102028.47;5087686;28;20426;-62
2022/08/30 08:45:59;;;;;;;4.80;3.90;;;;;;;21.18;73.83;102029.34;5088547;28;20012;-61
2022/08/30 08:48:33;;;;;;;7.50;4.32;;;;;;;21.31;74.06;102033.84;5088308;28;20032;-62
2022/08/30 08:53:52;;;;;;;3.78;3.47;;;;;;;21.62;72.51;102035.75;5088648;28;20188;-62
2022/08/30 08:56:18;;;;;;;3.85;3.17;;;;;;;21.69;70.32;102034.91;5088225;28;20695;-61
2022/08/30 08:58:53;;;;;;;3.30;2.47;;;;;;;21.74;68.89;102040.19;5088162;28;20046;-62
2022/08/30 09:01:22;;;;;;;2.90;2.65;;;;;;;21.75;67.42;102039.31;5088557;28;20035;-61
2022/08/30 09:03:49;;;;;;;3.47;2.63;;;;;;;21.78;67.71;102036.72;5087865;28;20050;-61
2022/08/30 09:06:29;;;;;;;3.42;2.35;;;;;;;21.73;67.55;102041.06;5087371;28;20027;-61
2022/08/30 09:08:54;;;;;;;2.93;2.57;;;;;;;21.85;66.94;102037.63;5087940;28;20052;-62
2022/08/30 09:11:24;;;;;;;3.92;2.67;;;;;;;21.97;65.98;102031.50;5088121;28;20036;-62
2022/08/30 09:13:50;;;;;;;3.92;2.38;;;;;;;22.04;65.06;102038.56;5087837;28;20028;-62
2022/08/30 09:16:45;;;;;;;3.00;2.70;;;;;;;22.12;64.55;102025.41;5087413;28;20046;-63
2022/08/30 09:19:10;;;;;;;4.70;2.50;;;;;;;22.32;65.79;102032.47;5087731;28;20016;-61
2022/08/30 09:21:36;;;;;;;2.17;1.98;;;;;;;22.47;64.39;102026.31;5087765;28;20027;-61
2022/08/30 09:24:04;;;;;;;2.40;2.00;;;;;;;22.63;64.24;102023.75;5087438;28;20035;-62
2022/08/30 09:26:35;;;;;;;2.95;1.90;;;;;;;22.76;63.39;102020.19;5081486;28;20016;-62
2022/08/30 09:29:03;;;;;;;3.72;2.05;;;;;;;22.92;62.70;102025.47;5067887;28;20102;-62
2022/08/30 09:31:31;;;;;;;1.70;1.60;;;;;;;23.02;61.74;102034.28;5081082;28;20032;-62
2022/08/30 09:34:05;;;;;;;2.35;1.83;;;;;;;23.08;60.87;102036.03;5078410;28;20024;-63
2022/08/30 09:36:50;;;;;;;3.53;2.05;;;;;;;22.99;60.11;102032.50;5087891;28;20024;-62
2022/08/30 09:39:24;;;;;;;3.90;2.42;;;;;;;23.01;60.02;102028.09;5087658;28;20502;-62
2022/08/30 09:41:50;;;;;;;2.38;1.80;;;;;;;23.02;61.39;102032.50;5078525;28;20058;-62
2022/08/30 09:44:22;;;;;;;2.40;1.77;;;;;;;23.04;60.31;102037.78;5087153;28;20391;-62
2022/08/30 09:46:51;;;;;;;3.22;2.53;;;;;;;22.97;59.46;102030.75;5085486;28;20096;-62
2022/08/30 09:49:36;;;;;;;2.70;2.17;;;;;;;22.91;60.60;102023.72;5087349;28;20024;-62
2022/08/30 09:52:36;;;;;;;2.60;1.80;;;;;;;22.86;59.67;102028.13;5072716;28;20039;-62
2022/08/30 09:55:19;;;;;;;2.42;2.15;;;;;;;22.89;59.40;102028.13;5086733;28;20030;-62
2022/08/30 09:58:16;;;;;;;2.33;1.70;;;;;;;22.90;59.29;102028.09;5061594;28;20495;-63
2022/08/30 10:01:09;;;;;;;1.70;1.48;;;;;;;22.95;60.47;102028.13;5088803;28;20024;-62
2022/08/30 10:03:42;;;;;;;3.35;1.70;;;;;;;23.06;59.47;102032.50;5094611;28;20054;-63
2022/08/30 10:06:21;;;;;;;3.55;1.80;;;;;;;23.18;59.46;102027.19;5093859;28;20016;-62
2022/08/30 10:09:21;;;;;;;2.35;1.80;;;;;;;23.34;59.20;102029.78;5094303;28;20032;-62
2022/08/30 10:12:14;;;;;;;3.15;1.70;;;;;;;23.49;58.96;102034.19;5075084;28;20372;-62
2022/08/30 10:15:01;;;;;;;2.08;1.10;;;;;;;23.68;58.41;102031.44;5094292;28;20050;-62
2022/08/30 10:17:52;;;;;;;2.97;1.67;;;;;;;23.70;56.86;102029.69;5093449;28;20027;-62
2022/08/30 10:20:37;;;;;;;1.45;1.25;;;;;;;23.71;57.44;102019.09;5093805;28;20119;-62
2022/08/30 10:23:05;;;;;;;2.15;1.42;;;;;;;23.83;57.49;102019.94;5093669;28;20028;-61
2022/08/30 10:25:39;;;;;;;2.22;1.50;;;;;;;23.92;56.42;102027.81;5093626;28;20052;-62
2022/08/30 10:28:26;;;;;;;1.88;1.40;;;;;;;23.99;56.36;102024.25;5093122;28;20115;-62
2022/08/30 10:30:58;;;;;;;3.17;1.83;;;;;;;23.99;55.18;102021.63;5093476;28;20077;-62
2022/08/30 10:33:28;;;;;;;2.45;1.55;;;;;;;23.95;55.07;102017.22;5093661;28;20024;-62
2022/08/30 10:35:57;;;;;;;1.60;1.38;;;;;;;23.96;56.00;102018.97;5092968;28;20111;-61
2022/08/30 10:38:29;;;;;;;3.28;1.33;;;;;;;24.08;56.29;102015.38;5093404;28;20217;-62
2022/08/30 10:41:16;;;;;;;3.92;1.50;;;;;;;24.23;54.47;102016.19;5093703;28;20491;-62
2022/08/30 10:44:16;;;;;;;4.50;1.50;;;;;;;24.26;53.88;102012.63;5093378;28;20047;-62
2022/08/30 10:47:23;;;;;;;2.63;1.42;;;;;;;24.35;53.60;102015.22;5069480;28;20039;-62
2022/08/30 10:49:53;;;;;;;2.72;1.40;;;;;;;24.39;53.44;102010.78;5091684;28;20031;-62
2022/08/30 10:52:30;;;;;;;3.13;1.10;;;;;;;24.48;54.30;102012.47;5088872;28;20285;-62
2022/08/30 10:55:04;;;;;;;2.53;1.23;;;;;;;24.58;53.16;102014.16;5085542;28;20539;-62
2022/08/30 10:57:30;;;;;;;2.38;1.73;;;;;;;24.52;51.62;102011.56;5079319;28;20016;-61
2022/08/30 11:00:04;;;;;;;2.55;1.30;;;;;;;24.53;52.84;101997.44;5093099;28;20512;-62
2022/08/30 11:02:56;;;;;;;3.35;1.75;;;;;;;24.53;52.60;102008.03;5093548;28;20158;-62
2022/08/30 11:05:36;;;;;;;2.45;1.25;;;;;;;24.56;52.00;102015.94;5093502;28;20072;-62
2022/08/30 11:08:13;;;;;;;4.03;1.52;;;;;;;24.53;51.63;102003.59;5069234;28;20028;-62
2022/08/30 11:10:50;;;;;;;3.95;1.20;;;;;;;24.62;52.35;101999.09;5093023;28;20024;-62
2022/08/30 11:13:28;;;;;;;3.28;1.48;;;;;;;24.68;52.25;101994.63;5090710;28;20416;-62
2022/08/30 11:16:03;;;;;;;2.75;1.58;;;;;;;24.75;51.28;102003.41;5089941;28;20032;-62
2022/08/30 11:18:32;;;;;;;3.47;0.98;;;;;;;24.81;51.57;102005.09;5090292;28;20020;-61
2022/08/30 11:21:19;;;;;;;2.17;1.30;;;;;;;24.78;51.43;101991.91;5089748;28;20028;-62
2022/08/30 11:24:01;;;;;;;4.43;1.38;;;;;;;24.85;50.67;102008.59;5089355;28;20028;-62
2022/08/30 11:26:44;;;;;;;2.33;1.17;;;;;;;24.82;50.94;102017.47;5089421;28;20497;-62
2022/08/30 11:29:25;;;;;;;4.82;1.52;;;;;;;24.87;50.58;101997.13;5090041;28;20036;-63
2022/08/30 11:31:50;;;;;;;1.65;0.95;;;;;;;25.01;50.28;102009.38;5065127;28;20055;-62